Nichinan — ZL6DEF1 — position and weather

sailwx.info

Track history (hours):
 
Tides and Currents Weather Stations Pressure Air Temp Water Temp Dewpoint Dewpoint Depression Visibility Wind Speed Wind Dir Waves Ship Positions

Nichinan

Last reported at 2017-Nov-16 05:43 UTC. Time now 2017-Nov-18 21:16 UTC.
Position N 35°18' E 139°38'.

MMSI: 431999636.

Date/timePositionNaut miles runAvg speedWind from/ knotsBaromVisibWave heightAir tempDewpointWater temp
2017-Nov-16 05:43N 35°18' E 139°38'0 0.3
2017-Nov-16 05:30N 35°18' E 139°38'2 4.3
2017-Nov-16 05:00N 35°19' E 139°41'5 9.6
2017-Nov-16 04:30N 35°16' E 139°46'611.3
2017-Nov-16 04:01N 35°11' E 139°46'611.5
2017-Nov-16 03:31N 35°05' E 139°45'15 0.6
2017-Nov-15 04:17N 35°03' E 139°27'0 0.3
2017-Nov-15 03:52N 35°03' E 139°27'0 1.1
2017-Nov-15 03:30N 35°03' E 139°27'1 2.7
2017-Nov-15 02:59N 35°03' E 139°29'1 2.8
2017-Nov-15 02:27N 35°02' E 139°31'1 2.7
2017-Nov-15 02:00N 35°02' E 139°32'1 2.8
2017-Nov-15 01:30N 35°03' E 139°34'0 0.7
2017-Nov-15 01:00N 35°03' E 139°33'612.5
2017-Nov-15 00:30N 35°05' E 139°40'714.6
2017-Nov-15 00:00N 35°11' E 139°45'612.4
2017-Nov-14 23:30N 35°17' E 139°45'5 9.7
2017-Nov-14 23:00N 35°19' E 139°39'15 0.3
2017-Nov-13 02:00N 35°05' E 139°34'715.1
2017-Nov-13 01:30N 35°06' E 139°43'612.8
2017-Nov-13 01:00N 35°12' E 139°46'612.0
2017-Nov-13 00:30N 35°18' E 139°44'612.2
2017-Nov-13 00:00N 35°24' E 139°42'2 3.7
2017-Nov-12 23:30N 35°25' E 139°41'0 0.2
2017-Nov-12 23:00N 35°25' E 139°41'0 0.0
2017-Nov-12 22:30N 35°25' E 139°41'0 0.0
2017-Nov-12 22:00N 35°25' E 139°41'  
2017-Nov-10 05:12N 35°25' E 139°41'0 0.0
2017-Nov-10 05:01N 35°25' E 139°41'0 0.0
2017-Nov-10 04:30N 35°25' E 139°41'0 0.0
2017-Nov-10 04:00N 35°25' E 139°41'0 0.0
2017-Nov-08 23:36N 35°25' E 139°41'0 0.1
2017-Nov-08 23:30N 35°25' E 139°41'  
Track history (hours):
 
Tides and Currents Weather Stations Pressure Air Temp Water Temp Dewpoint Dewpoint Depression Visibility Wind Speed Wind Dir Waves Ship Positions

Nichinan

Last reported at 2017-Nov-16 05:43 UTC. Time now 2017-Nov-18 21:16 UTC.
Position N 35°18' E 139°38'.

MMSI: 431999636.

Date/timePositionNaut miles runAvg speedWind from/ knotsBaromVisibWave heightAir tempDewpointWater temp
2017-Nov-16 05:43N 35°18' E 139°38'0 0.3
2017-Nov-16 05:30N 35°18' E 139°38'2 4.3
2017-Nov-16 05:00N 35°19' E 139°41'5 9.6
2017-Nov-16 04:30N 35°16' E 139°46'611.3
2017-Nov-16 04:01N 35°11' E 139°46'611.5
2017-Nov-16 03:31N 35°05' E 139°45'15 0.6
2017-Nov-15 04:17N 35°03' E 139°27'0 0.3
2017-Nov-15 03:52N 35°03' E 139°27'0 1.1
2017-Nov-15 03:30N 35°03' E 139°27'1 2.7
2017-Nov-15 02:59N 35°03' E 139°29'1 2.8
2017-Nov-15 02:27N 35°02' E 139°31'1 2.7
2017-Nov-15 02:00N 35°02' E 139°32'1 2.8
2017-Nov-15 01:30N 35°03' E 139°34'0 0.7
2017-Nov-15 01:00N 35°03' E 139°33'612.5
2017-Nov-15 00:30N 35°05' E 139°40'714.6
2017-Nov-15 00:00N 35°11' E 139°45'612.4
2017-Nov-14 23:30N 35°17' E 139°45'5 9.7
2017-Nov-14 23:00N 35°19' E 139°39'15 0.3
2017-Nov-13 02:00N 35°05' E 139°34'715.1
2017-Nov-13 01:30N 35°06' E 139°43'612.8
2017-Nov-13 01:00N 35°12' E 139°46'612.0
2017-Nov-13 00:30N 35°18' E 139°44'612.2
2017-Nov-13 00:00N 35°24' E 139°42'2 3.7
2017-Nov-12 23:30N 35°25' E 139°41'0 0.2
2017-Nov-12 23:00N 35°25' E 139°41'0 0.0
2017-Nov-12 22:30N 35°25' E 139°41'0 0.0
2017-Nov-12 22:00N 35°25' E 139°41'  
2017-Nov-10 05:12N 35°25' E 139°41'0 0.0
2017-Nov-10 05:01N 35°25' E 139°41'0 0.0
2017-Nov-10 04:30N 35°25' E 139°41'0 0.0
2017-Nov-10 04:00N 35°25' E 139°41'0 0.0
2017-Nov-08 23:36N 35°25' E 139°41'0 0.1
2017-Nov-08 23:30N 35°25' E 139°41'  

Dump ship's entire track history